Who's Online

We have 6 guests online

Aviation WX

[source: ADDS]
METAR
KIAD 020352Z 28003KT 10SM SCT080 24/23 A2998 RMK AO2 SLP148 T02440228 $ =
TAF
KIAD 012328Z 0200/0306 VRB03KT P6SM FEW040 SCT200 FM020900 VRB03KT 3SM BR SCT250 FM021300 26005KT P6SM SCT090 FM022000 21009KT P6SM BKN050 FM030100 28005KT P6SM BKN090 =
SR / SS: 00:22 / 13:21 UTC (Washington-Dulles 2014-09-01)

JoomlaWatch Agent

Home Products and Services

This section describes Multilink Systems products and services

 

 

Under construction Please Standby